Time;durP1;ratioP1;P1;durP2;ratioP2;P2;SDS_P1;SDS_P2;PMS_P1;PMS_P2;Temp;Humidity;BMP_temperature;BMP_pressure;BME280_temperature;BME280_humidity;BME280_pressure;Samples;Min_cycle;Max_cycle;Signal;HPM_P1;HPM_P2
2022/08/09 00:00:24;;;;;;;4.60;1.60;;;22.40;26.40;;;;;;5033066;28;20524;-71
2022/08/09 00:03:10;;;;;;;4.20;1.80;;;22.30;26.40;;;;;;5025847;28;20448;-71
2022/08/09 00:05:56;;;;;;;3.23;1.63;;;22.40;26.50;;;;;;5024110;28;20464;-71
2022/08/09 00:08:42;;;;;;;5.80;1.90;;;22.30;26.50;;;;;;5037508;28;20440;-72
2022/08/09 00:11:28;;;;;;;4.73;1.87;;;22.30;26.40;;;;;;5034211;28;20480;-71
2022/08/09 00:14:14;;;;;;;6.77;1.90;;;22.30;26.10;;;;;;5029016;28;20452;-71
2022/08/09 00:17:01;;;;;;;3.27;1.70;;;22.30;26.10;;;;;;5023019;28;20836;-71
2022/08/09 00:19:47;;;;;;;4.13;1.87;;;22.20;26.50;;;;;;5030394;28;20448;-71
2022/08/09 00:22:33;;;;;;;3.77;1.70;;;22.10;27.20;;;;;;5027979;28;20468;-71
2022/08/09 00:25:19;;;;;;;3.73;1.70;;;22.10;27.50;;;;;;5031223;28;20436;-71
2022/08/09 00:28:06;;;;;;;3.90;2.10;;;22.00;28.00;;;;;;5030451;28;20447;-71
2022/08/09 00:30:52;;;;;;;4.47;1.90;;;21.90;28.00;;;;;;5031729;28;20962;-70
2022/08/09 00:33:40;;;;;;;2.20;1.30;;;21.80;27.90;;;;;;5026931;28;20580;-71
2022/08/09 00:36:26;;;;;;;3.70;1.60;;;21.60;28.60;;;;;;5026748;28;21016;-71
2022/08/09 00:39:12;;;;;;;3.13;2.00;;;21.50;29.00;;;;;;5026718;28;20554;-71
2022/08/09 00:41:57;;;;;;;4.60;1.90;;;21.40;29.80;;;;;;5027897;28;20460;-71
2022/08/09 00:44:43;;;;;;;4.00;1.80;;;21.40;30.10;;;;;;5026004;28;20503;-71
2022/08/09 00:47:28;;;;;;;3.13;1.70;;;21.30;30.70;;;;;;5031373;28;20432;-71
2022/08/09 00:50:15;;;;;;;2.60;1.60;;;21.20;31.20;;;;;;5033368;28;20475;-71
2022/08/09 00:53:01;;;;;;;6.00;2.13;;;21.00;31.60;;;;;;5033373;28;20545;-71
2022/08/09 00:55:47;;;;;;;2.50;1.57;;;21.00;32.20;;;;;;5036035;28;20444;-71
2022/08/09 00:58:34;;;;;;;4.43;1.67;;;20.80;32.80;;;;;;5037439;28;20476;-71
2022/08/09 01:01:24;;;;;;;4.40;1.60;;;20.70;34.00;;;;;;5033637;28;20472;-71
2022/08/09 01:04:19;;;;;;;7.03;1.93;;;20.70;34.10;;;;;;5035100;28;22168;-71
2022/08/09 01:07:15;;;;;;;2.27;1.50;;;20.60;33.20;;;;;;5031035;28;20607;-71
2022/08/09 01:10:05;;;;;;;3.87;1.73;;;20.50;34.90;;;;;;5041278;28;21075;-71
2022/08/09 01:12:55;;;;;;;2.67;1.50;;;20.30;35.30;;;;;;5034388;28;20988;-71
2022/08/09 01:15:45;;;;;;;6.73;2.00;;;20.20;36.70;;;;;;5042316;28;20509;-71
2022/08/09 01:18:32;;;;;;;6.63;1.63;;;20.10;36.20;;;;;;5033968;28;21000;-71
2022/08/09 01:21:28;;;;;;;4.83;1.90;;;19.90;37.10;;;;;;5031687;28;20472;-71
2022/08/09 01:24:26;;;;;;;6.43;1.80;;;19.80;36.40;;;;;;5034296;28;20839;-71
2022/08/09 01:27:17;;;;;;;4.40;1.70;;;19.80;35.60;;;;;;5033175;28;20440;-71
2022/08/09 01:30:06;;;;;;;4.03;1.50;;;19.90;35.50;;;;;;5037796;28;20444;-71
2022/08/09 01:32:54;;;;;;;3.53;2.10;;;19.80;35.90;;;;;;5033011;28;20468;-71
2022/08/09 01:35:45;;;;;;;3.13;1.60;;;19.80;34.70;;;;;;5031968;28;20583;-71
2022/08/09 01:38:34;;;;;;;3.37;1.50;;;20.00;34.40;;;;;;5041138;28;20467;-71
2022/08/09 01:41:25;;;;;;;3.40;1.70;;;20.10;32.60;;;;;;5032976;28;20606;-71
2022/08/09 01:44:15;;;;;;;3.80;2.00;;;20.30;32.50;;;;;;5036013;28;20494;-71
2022/08/09 01:47:03;;;;;;;2.93;1.60;;;20.30;32.40;;;;;;5036749;28;20490;-71
2022/08/09 01:49:50;;;;;;;3.53;2.20;;;20.50;32.10;;;;;;5034295;28;20514;-71
2022/08/09 01:52:37;;;;;;;3.10;1.87;;;20.60;30.80;;;;;;5039304;28;20475;-71
2022/08/09 01:55:24;;;;;;;5.17;2.10;;;20.70;30.10;;;;;;5036706;28;20443;-72
2022/08/09 01:58:12;;;;;;;5.00;1.83;;;20.80;29.50;;;;;;5041679;28;20471;-71
2022/08/09 02:01:01;;;;;;;5.00;1.80;;;20.90;29.50;;;;;;5029928;28;20459;-71
2022/08/09 02:03:48;;;;;;;4.00;1.70;;;21.00;29.30;;;;;;5028816;28;20448;-71
2022/08/09 02:09:45;;;;;;;4.97;1.87;;;20.90;29.80;;;;;;5037456;28;20985;-71
2022/08/09 02:12:33;;;;;;;3.57;1.70;;;20.80;30.00;;;;;;5032944;28;20996;-71
2022/08/09 02:15:20;;;;;;;3.37;1.83;;;20.70;30.80;;;;;;5037646;28;20670;-71
2022/08/09 02:18:08;;;;;;;2.83;1.37;;;20.70;31.00;;;;;;5030651;28;20574;-71
2022/08/09 02:20:58;;;;;;;3.70;1.73;;;20.60;31.40;;;;;;5024508;28;20472;-71
2022/08/09 02:23:49;;;;;;;2.97;1.73;;;20.60;33.10;;;;;;5026863;28;20452;-71
2022/08/09 02:26:36;;;;;;;4.23;1.70;;;20.60;33.60;;;;;;5032872;28;20590;-71
2022/08/09 02:29:25;;;;;;;4.53;1.97;;;20.40;34.00;;;;;;5033967;28;20457;-71
2022/08/09 02:32:12;;;;;;;3.40;2.03;;;20.30;33.10;;;;;;5029798;28;20460;-71
2022/08/09 02:35:04;;;;;;;5.13;1.50;;;20.20;32.70;;;;;;5036015;28;20440;-71
2022/08/09 02:37:56;;;;;;;2.93;2.00;;;20.10;34.40;;;;;;5037027;28;20476;-71
2022/08/09 02:40:43;;;;;;;2.93;1.70;;;20.10;34.40;;;;;;5033380;28;20448;-71
2022/08/09 02:43:32;;;;;;;6.50;2.10;;;20.00;35.20;;;;;;5040059;28;20440;-71
2022/08/09 02:46:18;;;;;;;7.63;2.60;;;19.80;34.80;;;;;;5035383;28;20518;-71
2022/08/09 02:49:08;;;;;;;8.43;2.07;;;19.70;36.20;;;;;;5028691;28;20970;-71
2022/08/09 02:51:58;;;;;;;3.70;1.97;;;19.60;36.90;;;;;;5035640;28;20544;-71
2022/08/09 02:54:46;;;;;;;8.93;2.13;;;19.60;37.80;;;;;;5027690;28;21082;-71
2022/08/09 02:57:33;;;;;;;6.77;2.00;;;19.50;37.50;;;;;;5038345;28;20974;-71
2022/08/09 03:00:19;;;;;;;4.33;2.07;;;19.40;38.80;;;;;;5029524;28;20452;-71
2022/08/09 03:03:07;;;;;;;2.67;1.77;;;19.20;38.70;;;;;;5032751;28;20587;-71
2022/08/09 03:05:55;;;;;;;11.13;3.47;;;19.20;38.70;;;;;;5031088;28;20496;-71
2022/08/09 03:08:44;;;;;;;5.03;2.43;;;19.20;38.70;;;;;;5030380;28;20453;-72
2022/08/09 03:11:31;;;;;;;3.87;1.90;;;19.10;38.60;;;;;;5036435;28;20899;-71
2022/08/09 03:14:20;;;;;;;2.70;1.90;;;19.00;38.50;;;;;;5039487;28;20506;-71
2022/08/09 03:17:07;;;;;;;4.17;1.77;;;18.90;40.80;;;;;;5032276;28;20464;-71
2022/08/09 03:19:55;;;;;;;3.90;2.20;;;19.00;40.90;;;;;;5027798;28;20488;-71
2022/08/09 03:22:45;;;;;;;3.30;1.50;;;19.00;40.40;;;;;;5035401;28;20554;-71
2022/08/09 03:25:33;;;;;;;8.13;2.43;;;19.00;40.20;;;;;;5034265;28;20501;-71
2022/08/09 03:28:19;;;;;;;3.50;1.87;;;19.00;40.60;;;;;;5031066;28;20447;-71
2022/08/09 03:31:06;;;;;;;4.33;1.63;;;19.00;41.00;;;;;;5031043;28;20469;-71
2022/08/09 03:33:52;;;;;;;3.40;1.90;;;19.00;39.80;;;;;;5033009;28;20444;-71
2022/08/09 03:36:38;;;;;;;3.50;2.03;;;19.00;39.80;;;;;;5036072;28;20834;-72
2022/08/09 03:39:26;;;;;;;2.47;1.73;;;18.90;41.10;;;;;;5028538;28;20471;-71
2022/08/09 03:42:13;;;;;;;4.90;1.80;;;18.90;41.40;;;;;;5035032;28;20515;-71
2022/08/09 03:44:59;;;;;;;4.03;2.27;;;18.90;41.00;;;;;;5034349;28;20445;-71
2022/08/09 03:47:44;;;;;;;7.43;2.10;;;18.90;40.80;;;;;;5025327;28;20440;-71
2022/08/09 03:50:30;;;;;;;6.30;2.17;;;18.90;41.60;;;;;;5032272;28;20573;-71
2022/08/09 03:53:17;;;;;;;2.67;2.00;;;18.70;41.60;;;;;;5033147;28;20448;-71
2022/08/09 03:56:04;;;;;;;3.00;1.90;;;18.60;41.90;;;;;;5038426;28;20570;-71
2022/08/09 03:58:51;;;;;;;2.70;1.90;;;18.60;42.80;;;;;;5028978;28;21064;-71
2022/08/09 04:01:38;;;;;;;3.10;1.73;;;18.50;43.40;;;;;;5029784;28;20818;-71
2022/08/09 04:04:25;;;;;;;5.00;2.07;;;18.40;45.20;;;;;;5030414;28;20513;-71
2022/08/09 04:07:11;;;;;;;2.57;1.63;;;18.30;44.90;;;;;;5036922;28;20819;-71
2022/08/09 04:09:57;;;;;;;2.53;1.80;;;18.20;45.60;;;;;;5029324;28;20847;-71
2022/08/09 04:12:44;;;;;;;4.27;2.00;;;18.20;45.90;;;;;;5038950;28;20845;-71
2022/08/09 04:15:31;;;;;;;7.97;2.07;;;18.10;46.20;;;;;;5030929;28;20452;-71
2022/08/09 04:18:18;;;;;;;3.37;2.03;;;18.20;46.00;;;;;;5033216;28;20495;-71
2022/08/09 04:21:04;;;;;;;5.57;3.00;;;18.20;45.70;;;;;;5033968;28;20482;-71
2022/08/09 04:23:49;;;;;;;3.07;2.07;;;18.20;45.80;;;;;;5036645;28;20802;-71
2022/08/09 04:26:35;;;;;;;4.03;1.80;;;18.10;46.50;;;;;;5035393;28;20512;-71
2022/08/09 04:29:20;;;;;;;3.97;1.87;;;18.10;46.40;;;;;;5029220;28;20444;-71
2022/08/09 04:32:07;;;;;;;3.17;2.17;;;18.00;46.70;;;;;;5033581;28;20538;-71
2022/08/09 04:34:53;;;;;;;2.87;1.73;;;18.00;46.60;;;;;;5032483;28;20928;-71
2022/08/09 04:37:39;;;;;;;4.83;2.10;;;17.90;46.30;;;;;;5032131;28;20919;-71
2022/08/09 04:40:46;;;;;;;3.50;1.50;;;17.90;47.00;;;;;;5036537;28;21111;-71
2022/08/09 04:43:31;;;;;;;8.50;2.70;;;17.90;47.70;;;;;;5035583;28;20518;-71
2022/08/09 04:46:17;;;;;;;6.50;2.23;;;17.90;47.40;;;;;;5028476;28;20440;-71
2022/08/09 04:49:04;;;;;;;6.30;2.47;;;18.00;47.80;;;;;;5024519;28;20523;-71
2022/08/09 04:51:50;;;;;;;4.40;2.20;;;18.10;48.20;;;;;;5030439;28;20464;-71
2022/08/09 04:54:36;;;;;;;4.77;2.47;;;18.10;48.30;;;;;;5030340;28;20449;-71
2022/08/09 04:57:22;;;;;;;5.70;2.10;;;18.10;48.80;;;;;;5026726;28;20659;-71
2022/08/09 05:00:09;;;;;;;3.23;1.80;;;18.20;49.60;;;;;;5031775;28;20480;-71
2022/08/09 05:02:55;;;;;;;7.00;2.23;;;18.30;48.60;;;;;;5031990;28;20480;-71
2022/08/09 05:05:42;;;;;;;5.80;2.40;;;18.40;49.10;;;;;;5032111;28;20804;-71
2022/08/09 05:08:28;;;;;;;5.10;2.50;;;18.50;49.90;;;;;;5030230;28;20973;-71
2022/08/09 05:11:14;;;;;;;9.80;3.20;;;18.50;49.50;;;;;;5032988;28;20464;-71
2022/08/09 05:14:00;;;;;;;6.20;2.70;;;18.60;50.40;;;;;;5028355;28;20423;-72
2022/08/09 05:16:45;;;;;;;5.70;2.80;;;18.70;49.20;;;;;;5032811;28;20986;-71
2022/08/09 05:19:31;;;;;;;5.73;2.90;;;18.70;48.60;;;;;;5032514;28;20809;-71
2022/08/09 05:22:18;;;;;;;5.27;1.97;;;18.70;49.80;;;;;;5033491;28;20978;-71
2022/08/09 05:25:05;;;;;;;7.87;2.00;;;18.80;47.60;;;;;;5037542;28;20452;-71
2022/08/09 05:27:51;;;;;;;8.07;2.47;;;18.90;48.00;;;;;;5030768;28;20482;-71
2022/08/09 05:30:36;;;;;;;5.07;2.00;;;19.00;47.80;;;;;;5032974;28;20444;-71
2022/08/09 05:33:22;;;;;;;5.00;2.33;;;19.20;48.60;;;;;;5031157;28;20447;-71
2022/08/09 05:36:07;;;;;;;5.97;2.70;;;19.40;50.30;;;;;;5040762;28;20500;-71
2022/08/09 05:38:55;;;;;;;3.63;2.03;;;19.50;48.80;;;;;;5031363;28;20821;-71
2022/08/09 05:41:40;;;;;;;14.83;2.33;;;19.60;47.30;;;;;;5036023;28;20479;-70
2022/08/09 05:44:27;;;;;;;6.77;2.43;;;19.70;48.10;;;;;;5027834;28;20463;-71
2022/08/09 05:47:13;;;;;;;4.53;2.83;;;19.70;46.90;;;;;;5028093;28;20445;-71
2022/08/09 05:49:58;;;;;;;7.00;3.60;;;19.80;49.00;;;;;;5030427;28;20440;-71
2022/08/09 05:52:45;;;;;;;8.43;2.23;;;19.90;47.60;;;;;;5036149;28;20471;-70
2022/08/09 05:55:32;;;;;;;4.03;2.13;;;20.00;47.60;;;;;;5032014;28;20451;-70
2022/08/09 05:58:18;;;;;;;3.20;1.90;;;20.10;49.00;;;;;;5031590;28;20495;-71
2022/08/09 06:01:04;;;;;;;6.30;2.10;;;20.10;47.10;;;;;;5035112;28;20525;-71
2022/08/09 06:03:50;;;;;;;6.00;2.20;;;20.20;45.50;;;;;;5031134;28;20468;-70
2022/08/09 06:06:35;;;;;;;3.47;2.20;;;20.30;46.10;;;;;;5031554;28;20460;-71
2022/08/09 06:09:21;;;;;;;4.83;1.87;;;20.40;46.90;;;;;;5039880;28;20549;-70
2022/08/09 06:12:08;;;;;;;3.20;1.97;;;20.50;46.50;;;;;;5036005;28;20611;-70
2022/08/09 06:14:54;;;;;;;7.70;2.77;;;20.60;44.80;;;;;;5032459;28;20549;-71
2022/08/09 06:17:39;;;;;;;7.93;1.97;;;20.80;44.30;;;;;;5031995;28;20602;-71
2022/08/09 06:20:25;;;;;;;3.43;2.20;;;20.90;44.90;;;;;;5036641;28;20606;-71
2022/08/09 06:23:11;;;;;;;6.00;2.10;;;21.10;41.80;;;;;;5040497;28;20444;-71
2022/08/09 06:25:57;;;;;;;4.90;2.20;;;21.30;39.10;;;;;;5035372;28;20949;-71
2022/08/09 06:28:44;;;;;;;3.80;2.13;;;21.50;35.20;;;;;;5033088;28;20984;-70
2022/08/09 06:31:29;;;;;;;3.80;2.00;;;21.60;33.00;;;;;;5032564;28;20475;-70
2022/08/09 06:34:15;;;;;;;4.60;1.80;;;21.80;33.70;;;;;;5038272;28;20989;-71
2022/08/09 06:37:01;;;;;;;3.67;2.00;;;22.00;33.00;;;;;;5030272;28;20436;-71
2022/08/09 06:39:46;;;;;;;4.07;2.13;;;22.10;33.00;;;;;;5033694;28;20469;-71
2022/08/09 06:42:32;;;;;;;3.00;1.97;;;22.30;32.00;;;;;;5036226;28;20529;-71
2022/08/09 06:45:19;;;;;;;4.20;1.77;;;22.40;31.50;;;;;;5034108;28;20467;-71
2022/08/09 06:48:05;;;;;;;5.33;2.40;;;22.50;30.10;;;;;;5034239;28;20456;-70
2022/08/09 06:50:52;;;;;;;5.40;1.90;;;22.60;29.80;;;;;;5034678;28;20787;-70
2022/08/09 06:53:38;;;;;;;4.33;2.43;;;22.70;30.00;;;;;;5038458;28;20447;-70
2022/08/09 06:56:23;;;;;;;5.10;2.40;;;22.80;30.30;;;;;;5028168;28;20447;-71
2022/08/09 06:59:09;;;;;;;3.13;1.90;;;22.90;30.30;;;;;;5033727;28;20480;-71
2022/08/09 07:01:56;;;;;;;4.00;2.00;;;23.00;29.50;;;;;;5036701;28;20484;-70
2022/08/09 07:04:42;;;;;;;6.13;1.97;;;23.10;29.80;;;;;;5032957;28;20451;-70
2022/08/09 07:07:28;;;;;;;6.93;2.60;;;23.10;29.00;;;;;;5030751;28;20443;-71
2022/08/09 07:10:14;;;;;;;2.73;2.07;;;23.20;29.00;;;;;;5038816;28;21012;-70
2022/08/09 07:13:00;;;;;;;4.67;1.93;;;23.30;29.50;;;;;;5034295;28;20461;-71
2022/08/09 07:15:46;;;;;;;3.70;2.10;;;23.40;29.20;;;;;;5022279;28;20452;-71
2022/08/09 07:18:33;;;;;;;3.80;1.70;;;23.50;29.30;;;;;;5028803;28;20825;-71
2022/08/09 07:21:19;;;;;;;6.73;2.00;;;23.70;29.30;;;;;;5041412;28;20503;-71
2022/08/09 07:24:05;;;;;;;4.63;2.30;;;23.70;29.40;;;;;;5034410;28;20944;-71
2022/08/09 07:26:51;;;;;;;3.37;2.27;;;23.80;29.50;;;;;;5028754;28;20459;-71
2022/08/09 07:29:37;;;;;;;4.43;2.43;;;23.90;29.60;;;;;;5036284;28;20801;-71
2022/08/09 07:32:22;;;;;;;4.97;1.90;;;23.90;29.30;;;;;;5047272;28;20469;-71
2022/08/09 07:35:11;;;;;;;9.40;2.33;;;24.00;29.70;;;;;;5022947;28;20459;-71
2022/08/09 07:37:57;;;;;;;3.07;2.03;;;24.10;29.00;;;;;;5039353;28;20518;-71
2022/08/09 07:40:43;;;;;;;3.90;2.20;;;24.10;28.70;;;;;;5033433;28;20475;-71
2022/08/09 07:43:29;;;;;;;4.70;2.20;;;24.20;28.60;;;;;;5029254;28;20447;-71
2022/08/09 07:46:14;;;;;;;4.43;1.70;;;24.40;29.40;;;;;;5023794;28;20937;-71
2022/08/09 07:49:00;;;;;;;13.07;2.40;;;24.40;30.00;;;;;;5033216;28;20439;-70
2022/08/09 07:51:47;;;;;;;2.97;2.10;;;24.50;29.00;;;;;;5027895;28;20526;-70
2022/08/09 07:54:33;;;;;;;5.17;2.10;;;24.60;29.00;;;;;;5036979;28;20934;-71
2022/08/09 07:57:19;;;;;;;6.20;2.90;;;24.70;28.30;;;;;;5040240;28;20471;-71
2022/08/09 08:00:07;;;;;;;4.03;2.20;;;24.80;28.30;;;;;;5032068;28;20872;-71
2022/08/09 08:02:52;;;;;;;4.40;2.03;;;24.80;27.70;;;;;;5033670;28;21002;-71
2022/08/09 08:05:38;;;;;;;4.43;2.50;;;25.00;27.50;;;;;;5031067;28;20812;-70
2022/08/09 08:08:25;;;;;;;3.37;2.20;;;25.00;28.10;;;;;;5029747;28;20494;-71
2022/08/09 08:11:11;;;;;;;4.10;2.70;;;25.10;28.30;;;;;;5033993;28;20448;-71
2022/08/09 08:13:57;;;;;;;4.47;1.67;;;25.20;27.60;;;;;;5034793;28;20449;-71
2022/08/09 08:16:42;;;;;;;6.70;2.10;;;25.30;27.00;;;;;;5037553;28;20486;-71
2022/08/09 08:19:28;;;;;;;5.63;2.20;;;25.30;27.00;;;;;;5034490;28;20483;-71
2022/08/09 08:22:14;;;;;;;6.80;2.63;;;25.40;26.30;;;;;;5039426;28;20559;-71
2022/08/09 08:25:01;;;;;;;4.17;2.57;;;25.50;27.40;;;;;;5028779;28;20452;-71
2022/08/09 08:27:47;;;;;;;5.30;2.20;;;25.50;26.40;;;;;;5036121;28;21064;-72
2022/08/09 08:30:32;;;;;;;5.53;2.00;;;25.70;26.60;;;;;;5044261;28;20571;-72
2022/08/09 08:33:18;;;;;;;2.60;1.70;;;25.70;25.80;;;;;;5046354;28;20431;-71
2022/08/09 08:36:04;;;;;;;2.60;1.90;;;25.80;25.50;;;;;;5037755;28;20963;-71
2022/08/09 08:38:50;;;;;;;3.30;2.20;;;25.80;26.10;;;;;;5040506;28;20514;-71
2022/08/09 08:41:37;;;;;;;8.80;2.27;;;25.90;25.60;;;;;;5038807;28;20440;-71
2022/08/09 08:44:23;;;;;;;14.73;1.97;;;26.00;25.40;;;;;;5027958;28;20589;-72
2022/08/09 08:47:11;;;;;;;7.47;1.60;;;26.10;25.50;;;;;;5043908;28;20427;-71
2022/08/09 08:49:58;;;;;;;9.90;2.03;;;26.30;25.90;;;;;;5045619;28;20440;-71
2022/08/09 08:52:44;;;;;;;6.27;2.13;;;26.40;25.60;;;;;;5037903;28;20459;-71
2022/08/09 08:55:30;;;;;;;3.73;2.20;;;26.50;23.90;;;;;;5032873;28;20810;-71
2022/08/09 08:58:17;;;;;;;5.10;2.17;;;26.70;23.10;;;;;;5033126;28;20453;-71
2022/08/09 09:01:03;;;;;;;4.20;1.90;;;26.70;22.00;;;;;;5043268;28;20518;-71
2022/08/09 09:03:50;;;;;;;2.60;1.57;;;26.80;21.40;;;;;;5038784;28;20576;-71
2022/08/09 09:06:38;;;;;;;3.07;1.73;;;26.80;22.10;;;;;;5041107;28;20848;-72
2022/08/09 09:09:27;;;;;;;4.97;2.13;;;26.90;23.00;;;;;;5048415;28;20514;-71
2022/08/09 09:12:15;;;;;;;2.33;1.30;;;26.90;22.40;;;;;;5047773;28;20831;-71
2022/08/09 09:15:03;;;;;;;4.07;2.10;;;27.00;22.10;;;;;;5035006;28;20447;-72
2022/08/09 09:17:48;;;;;;;4.00;1.90;;;27.10;22.00;;;;;;5038276;28;20545;-72
2022/08/09 09:20:37;;;;;;;3.50;2.20;;;27.20;22.50;;;;;;5040912;28;20475;-72
2022/08/09 09:23:41;;;;;;;4.77;2.10;;;27.30;22.50;;;;;;5043142;28;20527;-71
2022/08/09 09:26:26;;;;;;;4.33;2.50;;;27.40;22.50;;;;;;5047136;28;20431;-72
2022/08/09 09:29:12;;;;;;;9.13;2.27;;;27.40;20.50;;;;;;5052748;28;20427;-71
2022/08/09 09:31:59;;;;;;;3.90;2.17;;;27.50;20.80;;;;;;5041328;28;20566;-72
2022/08/09 09:35:02;;;;;;;8.33;2.60;;;27.60;20.60;;;;;;5031784;28;20424;-72
2022/08/09 09:37:47;;;;;;;4.10;2.20;;;27.70;21.30;;;;;;5042827;28;20439;-71
2022/08/09 09:40:43;;;;;;;5.13;2.83;;;27.80;20.80;;;;;;5022809;28;20467;-72
2022/08/09 09:43:29;;;;;;;3.63;2.03;;;27.80;20.80;;;;;;5027745;28;20444;-70
2022/08/09 09:46:15;;;;;;;3.10;1.70;;;27.80;20.80;;;;;;5034471;28;21097;-72
2022/08/09 09:49:04;;;;;;;8.67;1.80;;;27.90;20.90;;;;;;5033282;28;20491;-70
2022/08/09 09:51:59;;;;;;;5.60;2.33;;;27.90;20.90;;;;;;5038704;28;20988;-70
2022/08/09 09:54:46;;;;;;;6.10;1.80;;;28.00;20.90;;;;;;5036660;28;20722;-70
2022/08/09 09:57:32;;;;;;;2.77;1.60;;;28.00;20.60;;;;;;5033582;28;20448;-70
2022/08/09 10:00:23;;;;;;;3.27;1.80;;;28.10;20.70;;;;;;5038162;28;21021;-70
2022/08/09 10:03:09;;;;;;;3.27;2.13;;;28.10;21.00;;;;;;5034678;28;20436;-70
2022/08/09 10:06:00;;;;;;;3.67;2.00;;;28.20;21.00;;;;;;5038549;28;20589;-70
2022/08/09 10:08:47;;;;;;;6.13;2.00;;;28.30;20.20;;;;;;5038690;28;20973;-71
2022/08/09 10:11:33;;;;;;;6.17;2.10;;;28.40;19.10;;;;;;5041106;28;20585;-70
2022/08/09 10:14:24;;;;;;;3.93;2.13;;;28.40;18.30;;;;;;5037285;28;20435;-70
2022/08/09 10:17:10;;;;;;;3.67;1.90;;;28.50;19.00;;;;;;5035886;28;20814;-70
2022/08/09 10:19:57;;;;;;;4.17;1.97;;;28.50;19.00;;;;;;5041969;28;20810;-71
2022/08/09 10:22:44;;;;;;;3.23;1.50;;;28.60;19.10;;;;;;5033062;28;20479;-70
2022/08/09 10:25:29;;;;;;;3.97;1.77;;;28.70;19.40;;;;;;5033524;28;20443;-70
2022/08/09 10:28:15;;;;;;;5.63;1.90;;;28.80;19.00;;;;;;5038539;28;20443;-70
2022/08/09 10:31:01;;;;;;;11.63;2.17;;;28.90;19.10;;;;;;5030834;28;20460;-70
2022/08/09 10:33:48;;;;;;;2.60;1.67;;;29.00;18.80;;;;;;5030101;28;20448;-70
2022/08/09 10:36:33;;;;;;;3.27;1.60;;;29.00;18.20;;;;;;5041493;28;20456;-70
2022/08/09 10:39:22;;;;;;;3.80;1.63;;;29.10;18.10;;;;;;5049477;28;21028;-71
2022/08/09 10:42:08;;;;;;;10.00;1.40;;;29.10;17.70;;;;;;5034319;28;20858;-70
2022/08/09 10:44:59;;;;;;;4.03;1.93;;;29.10;18.60;;;;;;5046217;28;20428;-70
2022/08/09 10:47:53;;;;;;;2.83;1.87;;;29.20;18.60;;;;;;5041123;28;20507;-70
2022/08/09 10:53:59;;;;;;;4.33;2.07;;;29.30;18.30;;;;;;5043238;28;20423;-71
2022/08/09 10:56:46;;;;;;;8.77;2.10;;;29.40;18.70;;;;;;5040485;28;20458;-70
2022/08/09 10:59:32;;;;;;;5.07;1.50;;;29.50;18.10;;;;;;5045803;28;20806;-70
2022/08/09 11:02:37;;;;;;;6.93;1.73;;;29.60;16.60;;;;;;5039044;28;20591;-70
2022/08/09 11:05:23;;;;;;;4.87;1.73;;;29.60;17.00;;;;;;5047521;28;20501;-71
2022/08/09 11:08:39;;;;;;;6.23;1.93;;;29.70;16.80;;;;;;5051309;28;20817;-71
2022/08/09 11:11:24;;;;;;;3.13;1.60;;;29.70;16.70;;;;;;5039840;28;20468;-71
2022/08/09 11:14:34;;;;;;;4.53;1.93;;;29.80;16.50;;;;;;5043157;28;20483;-71
2022/08/09 11:17:51;;;;;;;2.73;1.80;;;29.90;16.30;;;;;;5049915;28;20448;-71
2022/08/09 11:20:44;;;;;;;3.17;1.90;;;29.90;16.70;;;;;;5039741;28;20833;-71
2022/08/09 11:23:50;;;;;;;3.80;1.83;;;30.00;15.80;;;;;;5038639;28;20543;-71
2022/08/09 11:26:39;;;;;;;3.07;1.90;;;30.00;15.90;;;;;;5034648;28;20839;-70
2022/08/09 11:29:54;;;;;;;6.60;1.70;;;30.00;15.90;;;;;;5050267;28;20423;-70
2022/08/09 11:32:49;;;;;;;3.60;2.10;;;30.00;16.00;;;;;;5025655;28;20473;-70
2022/08/09 11:35:39;;;;;;;3.03;1.60;;;30.00;15.90;;;;;;5034346;28;20452;-71
2022/08/09 11:38:26;;;;;;;3.00;1.70;;;30.10;16.80;;;;;;5041087;28;20432;-70
2022/08/09 11:41:29;;;;;;;4.73;1.83;;;30.20;16.90;;;;;;5030043;28;21048;-70
2022/08/09 11:44:15;;;;;;;4.63;1.73;;;30.30;15.80;;;;;;5033033;28;20455;-70
2022/08/09 11:47:02;;;;;;;4.50;1.80;;;30.50;16.20;;;;;;5035787;28;20933;-70
2022/08/09 11:50:02;;;;;;;2.63;1.57;;;30.50;15.20;;;;;;5032658;28;20922;-71
2022/08/09 11:53:21;;;;;;;3.00;1.60;;;30.60;15.10;;;;;;5030579;28;20476;-71
2022/08/09 11:56:26;;;;;;;2.43;1.43;;;30.50;15.60;;;;;;4973248;28;20451;-71
2022/08/09 11:59:23;;;;;;;5.00;2.00;;;30.50;15.10;;;;;;4972386;28;20830;-71
2022/08/09 12:02:13;;;;;;;7.50;1.50;;;30.50;15.10;;;;;;5029915;28;20562;-71
2022/08/09 12:04:59;;;;;;;3.37;1.67;;;30.50;15.10;;;;;;5034404;28;20812;-71
2022/08/09 12:07:45;;;;;;;5.23;1.80;;;30.50;14.40;;;;;;5039364;28;20819;-71
2022/08/09 12:10:31;;;;;;;3.40;1.90;;;30.60;15.70;;;;;;5029912;28;20519;-71
2022/08/09 12:13:30;;;;;;;3.07;1.80;;;30.70;15.60;;;;;;5035992;28;20460;-71
2022/08/09 12:16:18;;;;;;;3.80;1.50;;;30.90;14.80;;;;;;5042625;28;20444;-71
2022/08/09 12:19:07;;;;;;;3.03;2.00;;;31.00;14.20;;;;;;5026444;28;20444;-71
2022/08/09 12:21:54;;;;;;;3.13;1.73;;;31.00;14.20;;;;;;5032294;28;20843;-71
2022/08/09 12:24:39;;;;;;;3.00;1.87;;;31.10;14.80;;;;;;5032797;28;20443;-71
2022/08/09 12:27:25;;;;;;;5.47;1.50;;;30.90;14.50;;;;;;5035653;28;20451;-71
2022/08/09 12:30:12;;;;;;;6.00;1.93;;;30.90;14.40;;;;;;5030817;28;20569;-71
2022/08/09 12:33:01;;;;;;;3.90;1.70;;;30.80;14.60;;;;;;5030313;28;20667;-71
2022/08/09 12:35:50;;;;;;;3.20;1.43;;;30.90;14.30;;;;;;5032880;28;20472;-71
2022/08/09 12:38:35;;;;;;;5.07;1.50;;;31.10;14.20;;;;;;5029983;28;20500;-71
2022/08/09 12:41:25;;;;;;;3.70;1.57;;;31.30;14.60;;;;;;5028473;28;20504;-71
2022/08/09 12:44:11;;;;;;;2.90;1.40;;;31.40;12.70;;;;;;5036438;28;20459;-71
2022/08/09 12:46:57;;;;;;;2.87;1.70;;;31.50;12.60;;;;;;5036059;28;20945;-71
2022/08/09 12:49:43;;;;;;;5.60;1.67;;;31.60;11.80;;;;;;5035776;28;20526;-71
2022/08/09 12:52:38;;;;;;;3.30;1.30;;;31.60;12.90;;;;;;5031574;28;21130;-71
2022/08/09 12:55:25;;;;;;;3.03;1.50;;;31.80;12.80;;;;;;5029529;28;20464;-71
2022/08/09 12:58:12;;;;;;;6.67;1.70;;;31.80;11.30;;;;;;5035074;28;20444;-71
2022/08/09 13:00:58;;;;;;;2.70;1.47;;;31.90;11.30;;;;;;5029438;28;20495;-71
2022/08/09 13:03:44;;;;;;;4.07;1.50;;;31.90;12.20;;;;;;5035762;28;20525;-71
2022/08/09 13:06:32;;;;;;;3.63;1.60;;;32.10;11.50;;;;;;5035820;28;20584;-71
2022/08/09 13:09:27;;;;;;;5.83;1.93;;;32.20;11.50;;;;;;5034712;28;20453;-71
2022/08/09 13:12:13;;;;;;;3.00;1.57;;;32.30;12.10;;;;;;5034325;28;20467;-71
2022/08/09 13:15:05;;;;;;;6.17;1.80;;;32.30;10.80;;;;;;5031717;28;20886;-71
2022/08/09 13:17:50;;;;;;;3.60;2.03;;;32.30;11.00;;;;;;5034464;28;20515;-71
2022/08/09 13:20:37;;;;;;;3.50;1.90;;;32.30;12.40;;;;;;5029394;28;20510;-71
2022/08/09 13:23:39;;;;;;;7.33;1.70;;;32.30;11.60;;;;;;5036393;28;20626;-71
2022/08/09 13:26:34;;;;;;;5.23;1.73;;;32.40;11.60;;;;;;5030117;28;20955;-71
2022/08/09 13:29:23;;;;;;;3.97;1.83;;;32.60;11.80;;;;;;5032810;28;20582;-71
2022/08/09 13:32:09;;;;;;;3.80;2.00;;;32.70;11.00;;;;;;5037352;28;20466;-71
2022/08/09 13:34:54;;;;;;;4.43;1.43;;;32.80;11.30;;;;;;5034948;28;20658;-71
2022/08/09 13:37:40;;;;;;;3.30;1.80;;;32.80;10.50;;;;;;5030372;28;21138;-71
2022/08/09 13:40:26;;;;;;;9.97;1.83;;;32.80;11.10;;;;;;5024918;28;20455;-71
2022/08/09 13:43:13;;;;;;;2.90;1.63;;;32.90;11.50;;;;;;5037415;28;20448;-71
2022/08/09 13:45:59;;;;;;;5.80;1.53;;;33.10;10.20;;;;;;5031803;28;20499;-71
2022/08/09 13:48:45;;;;;;;3.00;1.70;;;33.10;10.10;;;;;;5036100;28;20606;-71
2022/08/09 13:51:30;;;;;;;3.30;1.70;;;33.10;10.70;;;;;;5032315;28;20622;-71
2022/08/09 13:54:16;;;;;;;3.10;1.77;;;33.00;10.00;;;;;;5033585;28;20822;-71
2022/08/09 13:57:01;;;;;;;7.30;2.30;;;33.00;10.60;;;;;;5037251;28;20518;-71
2022/08/09 13:59:48;;;;;;;2.80;1.40;;;33.20;12.10;;;;;;5031305;28;20434;-71
2022/08/09 14:02:34;;;;;;;4.70;1.67;;;33.40;11.00;;;;;;5036285;28;20476;-71
2022/08/09 14:05:20;;;;;;;4.67;1.77;;;33.60;10.90;;;;;;5038564;28;20519;-71
2022/08/09 14:08:06;;;;;;;3.50;1.97;;;33.80;10.30;;;;;;5033978;28;20479;-71
2022/08/09 14:10:52;;;;;;;4.40;1.87;;;33.80;9.70;;;;;;5038882;28;20957;-71
2022/08/09 14:13:37;;;;;;;4.80;1.80;;;33.80;10.30;;;;;;5042192;28;21173;-71
2022/08/09 14:16:26;;;;;;;3.70;2.03;;;33.80;9.40;;;;;;5035887;28;20442;-71
2022/08/09 14:19:11;;;;;;;6.50;2.30;;;33.60;9.70;;;;;;5032630;28;20448;-71
2022/08/09 14:21:57;;;;;;;6.07;1.60;;;33.30;10.30;;;;;;5037602;28;20476;-71
2022/08/09 14:24:43;;;;;;;3.00;1.50;;;33.10;9.70;;;;;;5037198;28;20814;-71
2022/08/09 14:27:28;;;;;;;5.03;1.80;;;33.00;9.70;;;;;;5035108;28;20443;-71
2022/08/09 14:30:14;;;;;;;3.77;1.70;;;32.90;10.80;;;;;;5032445;28;20443;-71
2022/08/09 14:33:01;;;;;;;9.53;1.73;;;32.90;10.10;;;;;;5034795;28;20554;-71
2022/08/09 14:35:46;;;;;;;5.33;1.83;;;33.00;9.60;;;;;;5035167;28;20435;-71
2022/08/09 14:38:32;;;;;;;5.67;1.73;;;32.80;9.60;;;;;;5030082;28;20523;-71
2022/08/09 14:41:18;;;;;;;4.60;1.80;;;32.70;11.20;;;;;;5033756;28;20567;-71